createdAt,value
2019-05-10T00:02:14.431Z,93.50
2019-05-10T00:05:00.796Z,93.50
2019-05-10T00:07:46.868Z,93.60
2019-05-10T00:10:14.772Z,93.60
2019-05-10T00:12:47.301Z,93.60
2019-05-10T00:15:17.451Z,93.60
2019-05-10T00:17:46.545Z,93.70
2019-05-10T00:20:15.433Z,93.70
2019-05-10T00:22:43.858Z,93.70
2019-05-10T00:25:12.438Z,93.60
2019-05-10T00:27:40.869Z,93.70
2019-05-10T00:30:09.628Z,93.70
2019-05-10T00:32:38.045Z,93.70
2019-05-10T00:35:06.995Z,93.70
2019-05-10T00:37:35.521Z,93.70
2019-05-10T00:40:06.577Z,93.70
2019-05-10T00:42:35.077Z,93.70
2019-05-10T00:45:05.592Z,93.80
2019-05-10T00:47:34.040Z,94.00
2019-05-10T00:50:02.457Z,94.10
2019-05-10T00:52:30.880Z,94.00
2019-05-10T00:54:59.309Z,94.10
2019-05-10T00:57:27.752Z,94.00
2019-05-10T00:59:56.164Z,94.00
2019-05-10T01:02:24.602Z,94.20
2019-05-10T01:04:53.040Z,94.50
2019-05-10T01:07:21.477Z,94.40
2019-05-10T01:09:49.912Z,94.50
2019-05-10T01:12:18.417Z,94.50
2019-05-10T01:14:46.813Z,94.70
2019-05-10T01:17:15.274Z,94.80
2019-05-10T01:19:43.747Z,94.90
2019-05-10T01:22:12.177Z,95.10
2019-05-10T01:24:42.117Z,95.20
2019-05-10T01:27:10.585Z,95.20
2019-05-10T01:29:38.983Z,95.10
2019-05-10T01:32:07.496Z,95.20
2019-05-10T01:34:35.908Z,95.10
2019-05-10T01:37:04.558Z,95.00
2019-05-10T01:39:32.977Z,95.10
2019-05-10T01:42:01.397Z,95.00
2019-05-10T01:44:29.857Z,95.00
2019-05-10T01:46:58.263Z,94.80
2019-05-10T01:49:26.713Z,94.80
2019-05-10T01:51:55.122Z,95.10
2019-05-10T01:54:23.552Z,94.70
2019-05-10T01:56:51.961Z,94.70
2019-05-10T01:59:20.382Z,94.70
2019-05-10T02:01:48.801Z,94.60
2019-05-10T02:04:17.937Z,94.60
2019-05-10T02:06:47.388Z,94.60
2019-05-10T02:09:15.894Z,94.60
2019-05-10T02:11:44.309Z,94.50
2019-05-10T02:14:12.740Z,94.60
2019-05-10T02:16:41.165Z,94.60
2019-05-10T02:19:09.634Z,94.70
2019-05-10T02:21:38.062Z,94.70
2019-05-10T02:24:06.507Z,94.80
2019-05-10T02:26:34.910Z,94.80
2019-05-10T02:29:03.344Z,94.80
2019-05-10T02:31:31.785Z,94.70
2019-05-10T02:34:00.309Z,94.80
2019-05-10T02:36:28.731Z,94.70
2019-05-10T02:38:57.257Z,94.80
2019-05-10T02:41:25.695Z,94.80
2019-05-10T02:43:54.128Z,94.80
2019-05-10T02:46:22.569Z,94.80
2019-05-10T02:48:51.064Z,94.80
2019-05-10T02:51:19.577Z,94.90
2019-05-10T02:53:48.130Z,94.90
2019-05-10T02:56:29.604Z,94.90
2019-05-10T02:58:47.744Z,95.00
2019-05-10T03:01:19.280Z,95.10
2019-05-10T03:03:49.888Z,95.10
2019-05-10T03:06:20.081Z,95.10
2019-05-10T03:08:51.038Z,95.10
2019-05-10T03:11:20.004Z,95.20
2019-05-10T03:13:51.249Z,95.20
2019-05-10T03:16:22.396Z,95.10
2019-05-10T03:18:53.755Z,95.20
2019-05-10T03:21:24.111Z,95.10
2019-05-10T03:23:52.664Z,95.10
2019-05-10T03:26:21.107Z,95.10
2019-05-10T03:28:49.587Z,95.10
2019-05-10T03:31:18.022Z,95.10
2019-05-10T03:33:54.889Z,95.10
2019-05-10T03:36:16.840Z,95.00
2019-05-10T03:38:45.718Z,95.00
2019-05-10T03:41:14.305Z,95.00
2019-05-10T03:43:42.753Z,95.00
2019-05-10T03:46:11.174Z,95.10
2019-05-10T03:48:39.620Z,95.10
2019-05-10T03:51:08.289Z,95.10
2019-05-10T03:53:36.765Z,95.10
2019-05-10T03:56:05.166Z,95.20
2019-05-10T03:58:33.871Z,95.10
2019-05-10T04:01:02.292Z,95.10
2019-05-10T04:03:30.818Z,95.20
2019-05-10T04:05:59.321Z,95.20
2019-05-10T04:08:27.784Z,95.20
2019-05-10T04:10:56.358Z,95.20
2019-05-10T04:13:24.794Z,95.30
2019-05-10T04:15:54.979Z,95.30
2019-05-10T04:18:23.423Z,95.30
2019-05-10T04:20:51.845Z,95.40
2019-05-10T04:23:20.283Z,95.40
2019-05-10T04:25:48.698Z,95.40
2019-05-10T04:28:17.121Z,95.40
2019-05-10T04:30:46.689Z,95.40
2019-05-10T04:33:15.179Z,95.50
2019-05-10T04:35:43.607Z,95.50
2019-05-10T04:38:12.046Z,95.50
2019-05-10T04:40:40.533Z,95.40
2019-05-10T04:43:08.964Z,95.50
2019-05-10T04:45:37.389Z,95.60
2019-05-10T04:48:05.792Z,95.60
2019-05-10T04:50:34.223Z,95.50
2019-05-10T04:53:02.691Z,95.50
2019-05-10T04:55:31.151Z,95.50
2019-05-10T04:57:59.615Z,95.50
2019-05-10T05:00:28.082Z,95.50
2019-05-10T05:02:56.515Z,95.50
2019-05-10T05:05:24.953Z,95.60
2019-05-10T05:07:53.373Z,95.40
2019-05-10T05:10:21.810Z,95.30
2019-05-10T05:12:50.288Z,95.40
2019-05-10T05:15:18.735Z,95.40
2019-05-10T05:17:47.136Z,95.40
2019-05-10T05:20:15.658Z,95.30
2019-05-10T05:22:44.097Z,95.30
2019-05-10T05:25:12.667Z,95.20
2019-05-10T05:27:41.093Z,95.30
2019-05-10T05:30:09.959Z,95.20
2019-05-10T05:32:44.187Z,95.10
2019-05-10T05:35:08.786Z,95.10
2019-05-10T05:37:37.204Z,95.10
2019-05-10T05:40:10.382Z,95.10
2019-05-10T05:42:38.785Z,94.90
2019-05-10T05:45:08.805Z,95.10
2019-05-10T05:47:41.830Z,95.20
2019-05-10T05:50:09.130Z,95.20
2019-05-10T05:52:37.563Z,95.00
2019-05-10T05:55:06.847Z,94.90
2019-05-10T05:57:35.271Z,94.80
2019-05-10T06:00:06.717Z,94.80
2019-05-10T06:02:54.752Z,94.70
2019-05-10T06:05:33.574Z,94.50
2019-05-10T06:07:53.430Z,94.60
2019-05-10T06:10:21.937Z,94.60
2019-05-10T06:12:52.889Z,94.60
2019-05-10T06:15:23.069Z,94.60
2019-05-10T06:17:56.611Z,94.50
2019-05-10T06:20:20.821Z,94.20
2019-05-10T06:23:05.153Z,94.20
2019-05-10T06:25:37.803Z,93.90
2019-05-10T06:27:49.551Z,93.80
2019-05-10T06:30:18.105Z,93.40
2019-05-10T06:32:46.564Z,92.90
2019-05-10T06:35:19.560Z,92.90
2019-05-10T06:37:45.299Z,92.90
2019-05-10T06:40:13.777Z,92.30
2019-05-10T06:42:42.221Z,92.00
2019-05-10T06:45:14.796Z,92.00
2019-05-10T06:47:47.118Z,91.90
2019-05-10T06:50:11.366Z,91.60
2019-05-10T06:52:39.810Z,91.50
2019-05-10T06:55:08.672Z,91.70
2019-05-10T06:57:37.105Z,91.60
2019-05-10T07:00:08.047Z,91.50
2019-05-10T07:02:36.783Z,91.60
2019-05-10T07:05:05.435Z,91.60
2019-05-10T07:07:44.097Z,91.50
2019-05-10T07:10:17.830Z,91.40
2019-05-10T07:12:36.323Z,91.60
2019-05-10T07:15:08.941Z,91.60
2019-05-10T07:17:45.430Z,91.60
2019-05-10T07:20:08.515Z,91.30
2019-05-10T07:22:36.997Z,91.40
2019-05-10T07:25:07.575Z,91.60
2019-05-10T07:27:38.213Z,91.50
2019-05-10T07:30:07.252Z,91.30
2019-05-10T07:32:35.686Z,91.40
2019-05-10T07:35:05.975Z,91.40
2019-05-10T07:37:34.954Z,91.50
2019-05-10T07:40:05.238Z,91.30
2019-05-10T07:42:33.665Z,91.20
2019-05-10T07:45:02.308Z,91.50
2019-05-10T07:47:32.579Z,91.50
2019-05-10T07:50:03.786Z,91.30
2019-05-10T07:52:36.260Z,91.10
2019-05-10T07:55:01.190Z,90.90
2019-05-10T07:57:29.634Z,90.60
2019-05-10T08:00:03.725Z,90.40
2019-05-10T08:02:28.211Z,90.50
2019-05-10T08:04:58.425Z,90.30
2019-05-10T08:07:29.253Z,90.40
2019-05-10T08:09:59.311Z,90.90
2019-05-10T08:12:28.833Z,91.30
2019-05-10T08:14:59.026Z,90.80
2019-05-10T08:17:28.694Z,90.60
2019-05-10T08:19:57.258Z,90.40
2019-05-10T08:22:25.738Z,90.90
2019-05-10T08:24:56.280Z,90.50
2019-05-10T08:27:24.329Z,90.70
2019-05-10T08:30:15.746Z,91.00
2019-05-10T08:32:25.497Z,90.60
2019-05-10T08:34:55.708Z,89.90
2019-05-10T08:37:30.877Z,89.70
2019-05-10T08:39:56.074Z,89.10
2019-05-10T08:42:40.096Z,89.40
2019-05-10T08:45:03.777Z,87.80
2019-05-10T08:47:27.497Z,88.40
2019-05-10T08:50:09.857Z,88.40
2019-05-10T08:52:30.671Z,86.60
2019-05-10T08:54:55.253Z,86.60
2019-05-10T08:57:23.879Z,86.30
2019-05-10T08:59:54.205Z,86.80
2019-05-10T09:02:28.850Z,84.90
2019-05-10T09:04:53.001Z,85.10
2019-05-10T09:07:23.249Z,84.40
2019-05-10T09:09:53.032Z,83.70
2019-05-10T09:12:23.097Z,83.60
2019-05-10T09:14:57.479Z,81.90
2019-05-10T09:17:23.621Z,80.60
2019-05-10T09:19:52.041Z,77.60
2019-05-10T09:22:26.047Z,74.60
2019-05-10T09:24:52.854Z,75.50
2019-05-10T09:27:22.417Z,78.10
2019-05-10T09:29:52.878Z,77.10
2019-05-10T09:32:28.742Z,78.30
2019-05-10T09:34:54.136Z,76.40
2019-05-10T09:37:22.862Z,74.00
2019-05-10T09:39:54.876Z,73.10
2019-05-10T09:42:26.569Z,73.00
2019-05-10T09:44:52.736Z,72.10
2019-05-10T09:47:22.183Z,73.20
2019-05-10T09:49:56.422Z,73.00
2019-05-10T09:52:21.031Z,71.70
2019-05-10T09:54:49.696Z,71.10
2019-05-10T09:57:18.215Z,72.80
2019-05-10T09:59:47.057Z,73.10
2019-05-10T10:02:18.599Z,72.70
2019-05-10T10:04:47.348Z,72.90
2019-05-10T10:07:18.743Z,71.60
2019-05-10T10:09:47.798Z,71.20
2019-05-10T10:12:17.502Z,72.60
2019-05-10T10:14:47.309Z,72.10
2019-05-10T10:17:19.933Z,72.40
2019-05-10T10:19:48.116Z,71.60
2019-05-10T10:22:17.448Z,70.80
2019-05-10T10:24:48.965Z,70.40
2019-05-10T10:27:17.174Z,67.50
2019-05-10T10:29:47.481Z,67.00
2019-05-10T10:32:15.825Z,66.50
2019-05-10T10:34:44.276Z,67.70
2019-05-10T10:37:14.777Z,68.40
2019-05-10T10:39:42.888Z,68.70
2019-05-10T10:42:13.109Z,66.60
2019-05-10T10:44:41.468Z,65.20
2019-05-10T10:47:09.886Z,64.80
2019-05-10T10:49:38.301Z,63.00
2019-05-10T10:52:11.376Z,62.80
2019-05-10T10:54:39.767Z,63.80
2019-05-10T10:57:08.013Z,63.60
2019-05-10T10:59:37.363Z,63.10
2019-05-10T11:02:30.198Z,62.90
2019-05-10T11:04:40.560Z,63.50
2019-05-10T11:07:10.478Z,63.10
2019-05-10T11:09:36.516Z,64.50
2019-05-10T11:12:05.021Z,66.10
2019-05-10T11:14:40.206Z,67.00
2019-05-10T11:17:03.618Z,67.90
2019-05-10T11:19:32.058Z,68.90
2019-05-10T11:22:04.399Z,69.40
2019-05-10T11:24:30.855Z,70.00
2019-05-10T11:27:01.055Z,71.80
2019-05-10T11:29:30.813Z,72.10
2019-05-10T11:32:12.210Z,70.00
2019-05-10T11:34:37.569Z,70.70
2019-05-10T11:36:59.812Z,70.30
2019-05-10T11:39:32.957Z,67.90
2019-05-10T11:42:02.371Z,66.00
2019-05-10T11:44:28.557Z,66.20
2019-05-10T11:46:57.023Z,63.50
2019-05-10T11:49:25.511Z,62.90
2019-05-10T11:51:58.555Z,62.50
2019-05-10T11:54:24.114Z,62.10
2019-05-10T11:56:58.322Z,61.30
2019-05-10T11:59:27.351Z,62.20
2019-05-10T12:01:57.846Z,61.70
2019-05-10T12:06:53.268Z,61.10
2019-05-10T12:09:24.516Z,60.90
2019-05-10T12:14:22.562Z,61.40
2019-05-10T12:19:21.605Z,61.80
2019-05-10T12:21:55.599Z,60.70
2019-05-10T12:24:33.657Z,61.20
2019-05-10T12:26:04.973Z,61.00
2019-05-10T12:26:06.388Z,60.70
2019-05-10T12:26:06.531Z,60.70
2019-05-10T12:29:21.313Z,66.60
2019-05-10T12:31:55.550Z,68.80
2019-05-10T12:34:20.748Z,70.30
2019-05-10T12:36:51.768Z,70.80
2019-05-10T12:39:21.418Z,71.20
2019-05-10T12:41:52.274Z,71.50
2019-05-10T12:44:19.850Z,72.00
2019-05-10T12:46:53.801Z,72.50
2019-05-10T12:49:18.394Z,73.50
2019-05-10T12:51:46.852Z,73.50
2019-05-10T12:54:18.594Z,70.00
2019-05-10T12:56:46.247Z,68.70
2019-05-10T12:59:14.747Z,66.80
2019-05-10T13:01:43.185Z,66.90
2019-05-10T13:04:14.854Z,65.70
2019-05-10T13:06:41.759Z,64.80
2019-05-10T13:09:10.175Z,65.10
2019-05-10T13:11:38.601Z,66.20
2019-05-10T13:14:07.948Z,66.30
2019-05-10T13:16:37.195Z,67.50
2019-05-10T13:19:05.677Z,68.90
2019-05-10T13:21:34.117Z,68.50
2019-05-10T13:24:02.606Z,68.40
2019-05-10T13:26:31.109Z,68.40
2019-05-10T13:29:02.157Z,67.60
2019-05-10T13:31:29.782Z,67.60
2019-05-10T13:33:58.196Z,68.20
2019-05-10T13:36:30.686Z,67.90
2019-05-10T13:38:56.896Z,68.00
2019-05-10T13:41:26.513Z,69.30
2019-05-10T13:43:58.847Z,72.80
2019-05-10T13:46:25.260Z,76.90
2019-05-10T13:48:53.698Z,81.00
2019-05-10T13:51:22.145Z,83.00
2019-05-10T13:53:53.892Z,85.10
2019-05-10T13:56:37.205Z,86.30
2019-05-10T13:59:15.765Z,89.30
2019-05-10T14:01:35.905Z,90.40
2019-05-10T14:04:04.345Z,90.90
2019-05-10T14:06:32.790Z,91.00
2019-05-10T14:09:01.314Z,91.40
2019-05-10T14:11:34.002Z,92.20
2019-05-10T14:13:59.917Z,92.10
2019-05-10T14:16:28.384Z,91.90
2019-05-10T14:18:56.868Z,91.60
2019-05-10T14:21:25.312Z,91.40
2019-05-10T14:23:56.726Z,90.10
2019-05-10T14:26:23.914Z,88.20
2019-05-10T14:28:53.569Z,89.10
2019-05-10T14:31:22.480Z,87.50
2019-05-10T14:34:14.123Z,82.90
2019-05-10T14:36:21.125Z,81.70
2019-05-10T14:38:53.766Z,78.90
2019-05-10T14:41:19.713Z,81.60
2019-05-10T14:43:48.165Z,82.40
2019-05-10T14:46:16.590Z,80.60
2019-05-10T14:48:45.034Z,80.10
2019-05-10T14:51:13.965Z,81.40
2019-05-10T14:53:42.806Z,77.90
2019-05-10T14:56:14.012Z,77.90
2019-05-10T14:58:41.380Z,78.10
2019-05-10T15:01:09.819Z,77.50
2019-05-10T15:03:45.611Z,78.70
2019-05-10T15:06:08.411Z,78.80
2019-05-10T15:08:36.862Z,78.40
2019-05-10T15:11:05.337Z,78.40
2019-05-10T15:13:35.162Z,78.20
2019-05-10T15:16:08.273Z,78.70
2019-05-10T15:18:34.276Z,77.50
2019-05-10T15:21:02.715Z,77.60
2019-05-10T15:23:31.195Z,77.30
2019-05-10T15:26:10.453Z,79.00
2019-05-10T15:28:34.332Z,78.10
2019-05-10T15:31:00.071Z,76.50
2019-05-10T15:33:28.569Z,74.40
2019-05-10T15:35:57.045Z,74.30
2019-05-10T15:38:25.475Z,75.40
2019-05-10T15:40:53.927Z,76.70
2019-05-10T15:43:22.379Z,75.30
2019-05-10T15:45:52.744Z,74.80
2019-05-10T15:48:20.997Z,73.40
2019-05-10T15:50:49.505Z,73.80
2019-05-10T15:55:48.120Z,72.80
2019-05-10T15:58:16.610Z,73.60
2019-05-10T15:59:23.941Z,73.20
2019-05-10T16:00:45.098Z,73.60
2019-05-10T16:03:13.598Z,74.30
2019-05-10T16:05:43.863Z,74.50
2019-05-10T16:08:13.755Z,74.70
2019-05-10T16:10:42.566Z,75.00
2019-05-10T16:13:14.616Z,75.40
2019-05-10T16:15:41.309Z,76.20
2019-05-10T16:18:09.747Z,77.20
2019-05-10T16:20:39.027Z,76.60
2019-05-10T16:23:08.712Z,76.70
2019-05-10T16:25:41.989Z,76.60
2019-05-10T16:28:07.958Z,76.50
2019-05-10T16:30:36.699Z,76.80
2019-05-10T16:33:09.771Z,76.30
2019-05-10T16:35:38.982Z,76.80
2019-05-10T16:38:05.706Z,77.40
2019-05-10T16:40:34.204Z,77.50
2019-05-10T16:43:06.796Z,78.20
2019-05-10T16:45:32.955Z,77.80
2019-05-10T16:48:05.423Z,76.90
2019-05-10T16:50:33.774Z,76.40
2019-05-10T16:53:05.820Z,76.10
2019-05-10T16:55:35.471Z,75.00
2019-05-10T16:58:02.188Z,75.00
2019-05-10T17:00:30.688Z,75.10
2019-05-10T17:02:59.154Z,75.70
2019-05-10T17:05:27.606Z,76.40
2019-05-10T17:07:58.788Z,76.00
2019-05-10T17:10:26.901Z,76.00
2019-05-10T17:12:59.430Z,76.10
2019-05-10T17:15:26.534Z,76.00
2019-05-10T17:17:55.028Z,76.50
2019-05-10T17:20:23.509Z,77.30
2019-05-10T17:22:51.939Z,78.20
2019-05-10T17:25:22.586Z,82.00
2019-05-10T17:27:57.745Z,78.20
2019-05-10T17:30:22.225Z,76.20
2019-05-10T17:32:51.174Z,76.30
2019-05-10T17:35:19.639Z,74.40
2019-05-10T17:37:48.084Z,75.50
2019-05-10T17:40:16.724Z,75.90
2019-05-10T17:42:45.130Z,75.60
2019-05-10T17:45:13.965Z,74.90
2019-05-10T17:47:42.458Z,74.10
2019-05-10T17:50:11.269Z,74.10
2019-05-10T17:52:39.718Z,73.50
2019-05-10T17:55:10.825Z,71.50
2019-05-10T17:57:38.825Z,70.90
2019-05-10T18:00:09.423Z,72.40
2019-05-10T18:02:37.860Z,72.20
2019-05-10T18:05:08.286Z,71.50
2019-05-10T18:07:37.043Z,70.20
2019-05-10T18:10:06.345Z,70.20
2019-05-10T18:12:34.896Z,70.60
2019-05-10T18:15:05.208Z,71.10
2019-05-10T18:17:33.779Z,71.20
2019-05-10T18:20:03.833Z,72.10
2019-05-10T18:22:42.116Z,72.00
2019-05-10T18:25:02.874Z,72.20
2019-05-10T18:27:31.417Z,72.40
2019-05-10T18:29:59.863Z,72.20
2019-05-10T18:32:29.329Z,72.10
2019-05-10T18:34:58.798Z,72.20
2019-05-10T18:37:27.275Z,72.20
2019-05-10T18:39:55.837Z,72.50
2019-05-10T18:42:25.542Z,72.30
2019-05-10T18:44:54.463Z,72.20
2019-05-10T18:47:22.988Z,72.00
2019-05-10T18:49:51.409Z,72.10
2019-05-10T18:52:19.983Z,72.10
2019-05-10T18:54:48.439Z,72.20
2019-05-10T18:57:19.497Z,71.60
2019-05-10T18:59:47.354Z,71.30
2019-05-10T19:02:17.879Z,71.40
2019-05-10T19:04:51.729Z,71.90
2019-05-10T19:07:16.171Z,72.50
2019-05-10T19:09:44.790Z,72.20
2019-05-10T19:12:18.727Z,72.10
2019-05-10T19:14:43.373Z,72.10
2019-05-10T19:17:11.832Z,72.10
2019-05-10T19:19:42.280Z,72.30
2019-05-10T19:22:10.509Z,72.10
2019-05-10T19:24:39.002Z,72.40
2019-05-10T19:27:09.291Z,72.50
2019-05-10T19:29:44.628Z,72.00
2019-05-10T19:32:11.565Z,71.50
2019-05-10T19:34:38.066Z,71.60
2019-05-10T19:37:06.501Z,71.60
2019-05-10T19:39:34.970Z,71.40
2019-05-10T19:42:05.920Z,71.00
2019-05-10T19:44:34.550Z,71.00
2019-05-10T19:47:03.993Z,71.00
2019-05-10T19:49:32.410Z,71.80
2019-05-10T19:52:00.973Z,71.80
2019-05-10T19:54:29.566Z,71.40
2019-05-10T19:56:58.063Z,72.00
2019-05-10T19:59:26.502Z,72.00
2019-05-10T20:01:55.091Z,72.20
2019-05-10T20:04:23.729Z,72.50
2019-05-10T20:06:52.226Z,73.40
2019-05-10T20:09:20.711Z,73.90
2019-05-10T20:11:49.294Z,74.40
2019-05-10T20:14:17.845Z,74.50
2019-05-10T20:16:52.639Z,75.70
2019-05-10T20:19:16.530Z,77.40
2019-05-10T20:21:45.052Z,76.80
2019-05-10T20:24:13.509Z,76.20
2019-05-10T20:26:41.957Z,76.30
2019-05-10T20:29:10.395Z,76.60
2019-05-10T20:31:38.851Z,76.70
2019-05-10T20:34:07.406Z,77.40
2019-05-10T20:36:35.975Z,77.30
2019-05-10T20:39:06.534Z,77.50
2019-05-10T20:41:35.035Z,77.80
2019-05-10T20:44:03.610Z,77.70
2019-05-10T20:46:32.121Z,78.30
2019-05-10T20:49:00.611Z,78.40
2019-05-10T20:51:29.024Z,78.70
2019-05-10T20:53:57.575Z,79.10
2019-05-10T20:56:26.134Z,80.90
2019-05-10T20:58:54.575Z,82.00
2019-05-10T21:01:23.099Z,81.70
2019-05-10T21:03:51.574Z,81.30
2019-05-10T21:06:20.113Z,82.10
2019-05-10T21:08:48.581Z,83.30
2019-05-10T21:11:17.068Z,83.10
2019-05-10T21:13:45.543Z,82.60
2019-05-10T21:16:14.008Z,82.40
2019-05-10T21:18:42.453Z,82.60
2019-05-10T21:21:10.946Z,82.70
2019-05-10T21:23:39.380Z,84.40
2019-05-10T21:26:07.811Z,83.80
2019-05-10T21:28:36.252Z,84.20
2019-05-10T21:31:04.732Z,85.10
2019-05-10T21:33:33.177Z,85.40
2019-05-10T21:36:01.607Z,85.20
2019-05-10T21:38:32.988Z,84.90
2019-05-10T21:41:00.241Z,84.50
2019-05-10T21:43:28.720Z,84.50
2019-05-10T21:45:57.182Z,85.40
2019-05-10T21:48:25.642Z,86.00
2019-05-10T21:50:54.101Z,85.90
2019-05-10T21:53:22.546Z,86.10
2019-05-10T21:55:51.027Z,84.80
2019-05-10T21:58:19.537Z,84.60
2019-05-10T22:00:51.373Z,84.10
2019-05-10T22:03:20.713Z,84.10
2019-05-10T22:05:49.233Z,84.40
2019-05-10T22:08:17.733Z,84.60
2019-05-10T22:10:46.195Z,84.70
2019-05-10T22:13:14.694Z,85.20
2019-05-10T22:15:43.710Z,85.10
2019-05-10T22:18:12.280Z,85.30
2019-05-10T22:20:40.717Z,86.30
2019-05-10T22:23:09.224Z,86.50
2019-05-10T22:25:37.648Z,86.50
2019-05-10T22:28:06.090Z,86.50
2019-05-10T22:30:34.565Z,86.70
2019-05-10T22:33:03.081Z,88.10
2019-05-10T22:35:31.687Z,88.30
2019-05-10T22:38:00.086Z,88.70
2019-05-10T22:40:28.587Z,90.00
2019-05-10T22:42:57.097Z,90.30
2019-05-10T22:45:25.536Z,90.50
2019-05-10T22:47:53.977Z,90.50
2019-05-10T22:50:22.450Z,90.80
2019-05-10T22:52:50.886Z,91.50
2019-05-10T22:55:19.313Z,91.70
2019-05-10T22:57:47.760Z,91.70
2019-05-10T23:00:16.755Z,91.90
2019-05-10T23:02:45.208Z,92.10
2019-05-10T23:05:13.885Z,92.70
2019-05-10T23:07:42.311Z,92.80
2019-05-10T23:10:11.048Z,92.90
2019-05-10T23:12:39.603Z,92.90
2019-05-10T23:15:08.210Z,93.30
2019-05-10T23:17:36.645Z,93.50
2019-05-10T23:20:05.424Z,93.40
2019-05-10T23:22:33.854Z,93.50
2019-05-10T23:25:02.265Z,93.90
2019-05-10T23:27:30.699Z,93.40
2019-05-10T23:29:59.137Z,93.80
2019-05-10T23:32:27.669Z,94.00
2019-05-10T23:34:56.088Z,93.90
2019-05-10T23:37:24.505Z,94.10
2019-05-10T23:39:52.993Z,94.20
2019-05-10T23:42:21.426Z,94.30
2019-05-10T23:44:49.873Z,94.50
2019-05-10T23:47:18.313Z,94.50
2019-05-10T23:49:46.738Z,94.50
2019-05-10T23:52:15.178Z,94.70
2019-05-10T23:54:43.629Z,94.60
2019-05-10T23:57:12.054Z,94.60
2019-05-10T23:59:40.488Z,94.60
